createdAt,value
2022-10-05T19:13:41.543Z,101031.09
2022-10-05T19:17:01.342Z,101029.59
2022-10-05T19:20:19.147Z,101025.78
2022-10-05T19:23:44.658Z,101032.63
2022-10-05T19:27:02.346Z,101031.91
2022-10-05T19:30:19.627Z,101034.56
2022-10-05T19:33:36.875Z,101038.44
2022-10-05T19:36:52.734Z,101036.19
2022-10-05T19:40:01.708Z,101039.25
2022-10-05T19:43:22.274Z,101035.41
2022-10-05T19:46:45.256Z,101044.53
2022-10-05T19:49:58.179Z,101045.28
2022-10-05T19:53:08.189Z,101046.28
2022-10-05T19:56:20.242Z,101045.28
2022-10-05T19:59:27.628Z,101040.41
2022-10-05T20:02:37.571Z,101046.03
2022-10-05T20:05:45.074Z,101055.31
2022-10-05T20:08:51.479Z,101047.84
2022-10-05T20:11:55.484Z,101046.97
2022-10-05T20:15:27.265Z,101053.03
2022-10-05T20:19:07.667Z,101065.91
2022-10-05T20:22:27.695Z,101062.19
2022-10-05T20:25:32.423Z,101065.06
2022-10-05T20:28:36.139Z,101066.72
2022-10-05T20:31:39.817Z,101068.53
2022-10-05T20:34:46.671Z,101071.88
2022-10-05T20:37:51.017Z,101065.34
2022-10-05T20:40:54.664Z,101064.31
2022-10-05T20:43:58.324Z,101071.59
2022-10-05T20:47:02.109Z,101071.09
2022-10-05T20:50:10.139Z,101086.75
2022-10-05T20:53:13.857Z,101080.50
2022-10-05T20:56:19.872Z,101071.09
2022-10-05T20:59:24.558Z,101055.56
2022-10-05T21:02:28.913Z,101069.72
2022-10-05T21:05:34.632Z,101075.66
2022-10-05T21:08:38.368Z,101084.25
2022-10-05T21:11:42.191Z,101093.56
2022-10-05T21:14:46.399Z,101093.97
2022-10-05T21:17:50.813Z,101082.41
2022-10-05T21:20:59.857Z,101087.69
2022-10-05T21:24:06.570Z,101090.25
2022-10-05T21:27:10.734Z,101088.06
2022-10-05T21:30:14.605Z,101087.63
